createdAt,value
2022-11-29T00:01:31.941Z,100418.38
2022-11-29T00:03:35.502Z,100417.56
2022-11-29T00:05:38.377Z,100417.56
2022-11-29T00:07:41.183Z,100419.31
2022-11-29T00:09:44.104Z,100416.78
2022-11-29T00:12:04.671Z,100419.44
2022-11-29T00:14:09.142Z,100421.16
2022-11-29T00:16:13.266Z,100418.50
2022-11-29T00:18:16.199Z,100420.19
2022-11-29T00:20:19.191Z,100416.78
2022-11-29T00:22:23.565Z,100415.03
2022-11-29T00:24:26.577Z,100412.44
2022-11-29T00:26:29.584Z,100409.03
2022-11-29T00:28:33.882Z,100409.03
2022-11-29T00:30:36.857Z,100406.44
2022-11-29T00:32:41.088Z,100410.78
2022-11-29T00:34:44.113Z,100405.59
2022-11-29T00:36:47.091Z,100414.22
2022-11-29T00:38:50.035Z,100413.38
2022-11-29T00:40:53.273Z,100414.28
2022-11-29T00:42:56.014Z,100414.28
2022-11-29T00:44:58.872Z,100416.00
2022-11-29T00:47:01.648Z,100418.50
2022-11-29T00:49:06.039Z,100421.16
2022-11-29T00:51:09.668Z,100418.50
2022-11-29T00:53:12.566Z,100421.16
2022-11-29T00:55:15.965Z,100419.44
2022-11-29T00:57:18.728Z,100422.03
2022-11-29T00:59:21.588Z,100421.22
2022-11-29T01:01:24.516Z,100429.00
2022-11-29T01:03:27.468Z,100424.69
2022-11-29T01:05:33.368Z,100421.28
2022-11-29T01:07:36.241Z,100416.91
2022-11-29T01:09:39.103Z,100429.00
2022-11-29T01:11:41.965Z,100425.56
2022-11-29T01:13:45.081Z,100427.31
2022-11-29T01:15:56.645Z,100425.63
2022-11-29T01:17:59.605Z,100431.66
2022-11-29T01:20:02.831Z,100432.53
2022-11-29T01:22:07.063Z,100431.63
2022-11-29T01:24:09.979Z,100439.41
2022-11-29T01:26:15.050Z,100429.94
2022-11-29T01:28:17.920Z,100427.38
2022-11-29T01:30:20.764Z,100436.13
2022-11-29T01:32:23.512Z,100436.94
2022-11-29T01:34:26.285Z,100443.81
2022-11-29T01:36:29.295Z,100440.38
2022-11-29T01:38:33.873Z,100437.81
2022-11-29T01:40:36.660Z,100443.91
2022-11-29T01:42:39.423Z,100440.31
2022-11-29T01:45:02.804Z,100435.97
2022-11-29T01:47:06.332Z,100435.91
2022-11-29T01:49:13.386Z,100439.47
2022-11-29T01:51:16.599Z,100442.94
2022-11-29T01:53:20.220Z,100443.81
2022-11-29T01:55:24.645Z,100443.84
2022-11-29T01:57:28.276Z,100448.19
2022-11-29T01:59:31.507Z,100445.59
2022-11-29T02:01:34.904Z,100444.75
2022-11-29T02:03:38.060Z,100436.94
2022-11-29T02:05:44.124Z,100442.16
2022-11-29T02:07:50.997Z,100438.72
2022-11-29T02:09:54.018Z,100449.94
2022-11-29T02:12:21.806Z,100439.53
2022-11-29T02:14:49.474Z,100444.72
2022-11-29T02:17:01.659Z,100446.44
2022-11-29T02:19:19.434Z,100441.28
2022-11-29T02:21:32.425Z,100442.94
2022-11-29T02:23:51.579Z,100448.16
2022-11-29T02:26:14.316Z,100446.47
2022-11-29T02:28:46.153Z,100442.19
2022-11-29T02:31:06.166Z,100444.78
2022-11-29T02:33:35.265Z,100440.47
2022-11-29T02:35:53.342Z,100444.81
2022-11-29T02:38:19.727Z,100446.56
2022-11-29T02:40:39.873Z,100446.56
2022-11-29T02:43:02.159Z,100441.38
2022-11-29T02:45:11.777Z,100439.66
2022-11-29T02:47:26.301Z,100443.16
2022-11-29T02:49:45.744Z,100445.69
2022-11-29T02:51:55.986Z,100441.38
2022-11-29T02:54:07.195Z,100443.09
2022-11-29T02:56:16.364Z,100440.50
2022-11-29T02:58:26.902Z,100442.28
2022-11-29T03:00:30.591Z,100444.84
2022-11-29T03:02:39.247Z,100444.84
2022-11-29T03:04:51.483Z,100443.09
2022-11-29T03:07:03.202Z,100449.13
2022-11-29T03:09:13.223Z,100450.03
2022-11-29T03:11:25.348Z,100450.94
2022-11-29T03:13:48.881Z,100449.25
2022-11-29T03:16:00.007Z,100459.59
2022-11-29T03:18:14.124Z,100459.66
2022-11-29T03:20:30.024Z,100458.84
2022-11-29T03:22:44.044Z,100465.63
2022-11-29T03:24:53.185Z,100467.31
2022-11-29T03:27:02.554Z,100466.38
2022-11-29T03:29:10.497Z,100470.69
2022-11-29T03:31:21.723Z,100468.06
2022-11-29T03:33:31.572Z,100471.38
2022-11-29T03:35:42.102Z,100471.38
2022-11-29T03:37:55.881Z,100468.88
2022-11-29T03:40:05.449Z,100468.00
2022-11-29T03:42:14.629Z,100474.97
2022-11-29T03:44:21.094Z,100478.44
2022-11-29T03:46:32.903Z,100475.91
2022-11-29T03:48:41.527Z,100461.22
2022-11-29T03:50:52.682Z,100474.41
2022-11-29T03:53:01.966Z,100473.53
2022-11-29T03:55:19.992Z,100477.84
2022-11-29T03:57:32.221Z,100476.16
2022-11-29T03:59:52.837Z,100478.81
2022-11-29T04:02:34.269Z,100481.38
2022-11-29T04:05:14.283Z,100476.22
2022-11-29T04:07:35.574Z,100477.94
2022-11-29T04:09:57.330Z,100485.94
2022-11-29T04:12:18.087Z,100473.81
2022-11-29T04:14:50.957Z,100479.81
2022-11-29T04:17:22.837Z,100480.66
2022-11-29T04:19:47.707Z,100484.06
2022-11-29T04:22:15.456Z,100487.53
2022-11-29T04:24:52.591Z,100489.97
2022-11-29T04:27:30.848Z,100489.97
2022-11-29T04:29:53.571Z,100495.94
2022-11-29T04:32:14.858Z,100493.47
2022-11-29T04:35:02.393Z,100498.66
2022-11-29T04:37:19.451Z,100502.59
2022-11-29T04:39:43.988Z,100505.06
2022-11-29T04:42:24.228Z,100511.31
2022-11-29T04:44:50.447Z,100512.94
2022-11-29T04:47:14.061Z,100506.88
2022-11-29T04:49:35.682Z,100515.59
2022-11-29T04:51:56.796Z,100517.28
2022-11-29T04:54:08.245Z,100514.84
2022-11-29T04:56:20.364Z,100519.88
2022-11-29T04:58:31.060Z,100514.81
2022-11-29T05:00:44.468Z,100511.34
2022-11-29T05:02:56.388Z,100520.88
2022-11-29T05:05:06.137Z,100518.38
2022-11-29T05:07:15.447Z,100522.63
2022-11-29T05:09:28.863Z,100522.63
2022-11-29T05:11:45.259Z,100518.53
2022-11-29T05:13:54.959Z,100527.09
2022-11-29T05:16:15.601Z,100521.97
2022-11-29T05:18:43.121Z,100530.41
2022-11-29T05:20:53.918Z,100537.19
2022-11-29T05:23:14.713Z,100538.81
2022-11-29T05:25:36.311Z,100539.69
2022-11-29T05:27:46.999Z,100542.25
2022-11-29T05:29:59.259Z,100552.50
2022-11-29T05:32:22.080Z,100551.66
2022-11-29T05:34:48.758Z,100558.50
2022-11-29T05:37:00.778Z,100554.09
2022-11-29T05:39:20.501Z,100552.50
2022-11-29T05:41:45.072Z,100559.38
2022-11-29T05:44:00.184Z,100556.75
2022-11-29T05:46:10.128Z,100557.53
2022-11-29T05:48:19.955Z,100554.09
2022-11-29T05:50:29.501Z,100557.63
2022-11-29T05:52:51.926Z,100560.25
2022-11-29T05:55:07.372Z,100566.31
2022-11-29T05:57:14.816Z,100561.75
2022-11-29T05:59:22.852Z,100566.16
2022-11-29T06:01:28.900Z,100566.22
2022-11-29T06:03:38.126Z,100562.75
2022-11-29T06:05:47.259Z,100570.59
2022-11-29T06:07:57.197Z,100565.41
2022-11-29T06:10:04.568Z,100568.88
2022-11-29T06:12:19.625Z,100576.69
2022-11-29T06:14:43.069Z,100579.22
2022-11-29T06:17:09.915Z,100580.94
2022-11-29T06:19:45.011Z,100583.44
2022-11-29T06:21:59.412Z,100580.00
2022-11-29T06:24:24.817Z,100579.06
2022-11-29T06:26:46.127Z,100595.41
2022-11-29T06:29:02.688Z,100589.41
2022-11-29T06:31:16.204Z,100600.75
2022-11-29T06:33:24.224Z,100597.25
2022-11-29T06:35:39.070Z,100599.69
2022-11-29T06:37:46.610Z,100603.06
2022-11-29T06:39:50.305Z,100600.16
2022-11-29T06:41:53.074Z,100607.69
2022-11-29T06:43:56.630Z,100610.06
2022-11-29T06:46:06.867Z,100605.78
2022-11-29T06:48:15.913Z,100609.31
2022-11-29T06:50:33.408Z,100613.75
2022-11-29T06:52:44.056Z,100616.41
2022-11-29T06:55:01.502Z,100618.38
2022-11-29T06:57:12.401Z,100624.53
2022-11-29T06:59:30.284Z,100629.44
2022-11-29T07:01:41.362Z,100630.97
2022-11-29T07:04:00.610Z,100630.13
2022-11-29T07:06:09.797Z,100633.59
2022-11-29T07:08:16.881Z,100633.59
2022-11-29T07:10:21.345Z,100642.22
2022-11-29T07:12:24.781Z,100635.16
2022-11-29T07:14:29.201Z,100637.56
2022-11-29T07:16:38.077Z,100640.03
2022-11-29T07:18:48.627Z,100646.13
2022-11-29T07:21:03.965Z,100647.19
2022-11-29T07:23:11.054Z,100644.31
2022-11-29T07:25:22.893Z,100651.44
2022-11-29T07:27:34.009Z,100647.31
2022-11-29T07:29:45.122Z,100658.63
2022-11-29T07:32:00.160Z,100650.84
2022-11-29T07:34:14.311Z,100659.38
2022-11-29T07:36:29.208Z,100652.56
2022-11-29T07:38:40.667Z,100651.94
2022-11-29T07:40:52.142Z,100649.41
2022-11-29T07:43:10.293Z,100659.13
2022-11-29T07:45:21.888Z,100653.13
2022-11-29T07:47:24.729Z,100665.34
2022-11-29T07:49:27.557Z,100662.16
2022-11-29T07:51:32.331Z,100660.66
2022-11-29T07:53:41.902Z,100665.25
2022-11-29T07:55:45.066Z,100668.47
2022-11-29T07:57:48.245Z,100664.94
2022-11-29T07:59:51.384Z,100666.75
2022-11-29T08:01:54.482Z,100671.13
2022-11-29T08:03:57.442Z,100672.16
2022-11-29T08:06:00.293Z,100672.19
2022-11-29T08:08:04.710Z,100677.59
2022-11-29T08:10:10.041Z,100673.44
2022-11-29T08:12:12.856Z,100670.44
2022-11-29T08:14:15.858Z,100674.78
2022-11-29T08:16:19.354Z,100674.75
2022-11-29T08:18:22.250Z,100678.19
2022-11-29T08:20:25.196Z,100676.47
2022-11-29T08:22:28.181Z,100673.84
2022-11-29T08:24:32.341Z,100680.75
2022-11-29T08:26:35.234Z,100682.47
2022-11-29T08:28:38.088Z,100681.66
2022-11-29T08:30:40.903Z,100687.72
2022-11-29T08:32:48.441Z,100688.66
2022-11-29T08:34:54.007Z,100691.34
2022-11-29T08:36:57.183Z,100691.41
2022-11-29T08:39:08.893Z,100693.16
2022-11-29T08:41:15.601Z,100692.34
2022-11-29T08:43:18.355Z,100697.69
2022-11-29T08:45:21.363Z,100694.16
2022-11-29T08:47:41.006Z,100702.09
2022-11-29T08:49:57.760Z,100697.69
2022-11-29T08:52:14.453Z,100709.75
2022-11-29T08:54:17.314Z,100705.56
2022-11-29T08:57:10.173Z,100706.56
2022-11-29T08:58:44.508Z,100705.56
2022-11-29T09:00:47.454Z,100705.53
2022-11-29T09:02:50.569Z,100715.19
2022-11-29T09:05:03.453Z,100710.78
2022-11-29T09:07:06.309Z,100716.06
2022-11-29T09:09:09.281Z,100714.44
2022-11-29T09:11:13.546Z,100716.31
2022-11-29T09:13:18.571Z,100727.44
2022-11-29T09:15:21.376Z,100724.03
2022-11-29T09:17:24.240Z,100733.53
2022-11-29T09:19:27.382Z,100729.91
2022-11-29T09:21:32.192Z,100729.09
2022-11-29T09:23:34.787Z,100733.34
2022-11-29T09:25:37.741Z,100735.84
2022-11-29T09:27:41.637Z,100743.72
2022-11-29T09:29:45.809Z,100744.66
2022-11-29T09:31:48.694Z,100747.84
2022-11-29T09:33:51.802Z,100747.03
2022-11-29T09:35:58.504Z,100749.63
2022-11-29T09:38:01.678Z,100751.31
2022-11-29T09:40:05.041Z,100753.16
2022-11-29T09:42:20.653Z,100754.16
2022-11-29T09:44:31.700Z,100754.06
2022-11-29T09:46:44.864Z,100760.31
2022-11-29T09:49:02.661Z,100762.88
2022-11-29T09:51:17.286Z,100763.47
2022-11-29T09:53:38.528Z,100766.91
2022-11-29T09:55:55.784Z,100757.50
2022-11-29T09:58:03.684Z,100762.00
2022-11-29T10:00:15.072Z,100752.56
2022-11-29T10:02:24.717Z,100757.09
2022-11-29T10:04:32.291Z,100752.72
2022-11-29T10:06:39.584Z,100763.00
2022-11-29T10:08:48.362Z,100755.16
2022-11-29T10:10:55.348Z,100758.72
2022-11-29T10:13:05.289Z,100761.31
2022-11-29T10:15:16.782Z,100771.66
2022-11-29T10:17:30.734Z,100762.81
2022-11-29T10:19:38.029Z,100767.16
2022-11-29T10:21:45.477Z,100768.13
2022-11-29T10:23:52.060Z,100761.38
2022-11-29T10:25:56.859Z,100759.69
2022-11-29T10:27:59.760Z,100764.78
2022-11-29T10:30:02.727Z,100762.13
2022-11-29T10:32:13.956Z,100756.81
2022-11-29T10:34:20.948Z,100757.00
2022-11-29T10:36:28.881Z,100756.09
2022-11-29T10:38:32.157Z,100757.88
2022-11-29T10:40:36.882Z,100763.09
2022-11-29T10:42:53.088Z,100757.13
2022-11-29T10:44:55.857Z,100761.59
2022-11-29T10:47:00.931Z,100754.72
2022-11-29T10:49:06.954Z,100756.63
2022-11-29T10:51:18.487Z,100757.31
2022-11-29T10:53:27.853Z,100755.56
2022-11-29T10:55:35.117Z,100752.03
2022-11-29T10:57:40.256Z,100750.38
2022-11-29T10:59:43.251Z,100758.34
2022-11-29T11:01:46.179Z,100754.03
2022-11-29T11:03:53.431Z,100756.81
2022-11-29T11:06:00.220Z,100756.00
2022-11-29T11:08:05.517Z,100755.34
2022-11-29T11:10:22.456Z,100754.25
2022-11-29T11:12:29.069Z,100753.38
2022-11-29T11:14:34.332Z,100760.28
2022-11-29T11:16:37.836Z,100753.34
2022-11-29T11:18:42.244Z,100753.41
2022-11-29T11:20:54.676Z,100751.38
2022-11-29T11:23:00.282Z,100752.13
2022-11-29T11:25:07.471Z,100752.25
2022-11-29T11:27:10.651Z,100754.91
2022-11-29T11:29:19.180Z,100752.44
2022-11-29T11:31:31.792Z,100754.28
2022-11-29T11:33:38.136Z,100760.22
2022-11-29T11:35:40.957Z,100753.31
2022-11-29T11:37:57.430Z,100755.00
2022-11-29T11:40:02.260Z,100772.41
2022-11-29T11:42:23.323Z,100761.69
2022-11-29T11:44:51.989Z,100765.31
2022-11-29T11:46:55.388Z,100772.09
2022-11-29T11:48:58.210Z,100777.28
2022-11-29T11:51:02.264Z,100769.47
2022-11-29T11:53:08.012Z,100767.72
2022-11-29T11:55:33.674Z,100770.53
2022-11-29T11:57:38.142Z,100781.66
2022-11-29T11:59:40.953Z,100779.13
2022-11-29T12:01:43.791Z,100774.09
2022-11-29T12:03:53.617Z,100776.66
2022-11-29T12:06:01.661Z,100781.13
2022-11-29T12:08:08.351Z,100775.19
2022-11-29T12:10:19.601Z,100779.44
2022-11-29T12:12:26.966Z,100775.94
2022-11-29T12:14:38.310Z,100772.63
2022-11-29T12:16:42.633Z,100777.81
2022-11-29T12:18:51.509Z,100778.09
2022-11-29T12:20:59.377Z,100783.13
2022-11-29T12:23:22.668Z,100771.97
2022-11-29T12:25:29.769Z,100775.47
2022-11-29T12:27:32.736Z,100777.13
2022-11-29T12:29:36.886Z,100776.41
2022-11-29T12:31:55.004Z,100784.25
2022-11-29T12:34:05.876Z,100783.91
2022-11-29T12:36:29.431Z,100787.38
2022-11-29T12:38:50.591Z,100789.09
2022-11-29T12:41:05.348Z,100793.56
2022-11-29T12:43:19.675Z,100791.16
2022-11-29T12:45:41.632Z,100789.34
2022-11-29T12:47:54.485Z,100791.97
2022-11-29T12:50:11.807Z,100784.25
2022-11-29T12:52:23.569Z,100786.88
2022-11-29T12:54:39.268Z,100786.13
2022-11-29T12:56:48.961Z,100786.97
2022-11-29T12:59:06.023Z,100788.81
2022-11-29T13:01:24.006Z,100785.13
2022-11-29T13:03:31.402Z,100779.88
2022-11-29T13:05:46.840Z,100787.84
2022-11-29T13:07:57.388Z,100794.00
2022-11-29T13:10:21.832Z,100795.69
2022-11-29T13:12:33.021Z,100792.03
2022-11-29T13:14:43.729Z,100800.56
2022-11-29T13:16:56.179Z,100795.31
2022-11-29T13:19:03.253Z,100797.06
2022-11-29T13:21:14.080Z,100794.44
2022-11-29T13:23:45.741Z,100798.81
2022-11-29T13:25:51.843Z,100806.75
2022-11-29T13:27:59.512Z,100808.47
2022-11-29T13:30:02.696Z,100811.13
2022-11-29T13:32:14.388Z,100804.25
2022-11-29T13:34:22.792Z,100802.47
2022-11-29T13:36:34.219Z,100812.72
2022-11-29T13:38:40.953Z,100805.91
2022-11-29T13:40:55.727Z,100807.72
2022-11-29T13:43:06.017Z,100800.97
2022-11-29T13:45:21.645Z,100801.75
2022-11-29T13:47:25.985Z,100801.63
2022-11-29T13:49:59.843Z,100809.13
2022-11-29T13:52:06.499Z,100808.53
2022-11-29T13:54:30.010Z,100800.56
2022-11-29T13:56:42.962Z,100809.25
2022-11-29T13:58:46.162Z,100806.13
2022-11-29T14:00:52.335Z,100810.19
2022-11-29T14:02:57.585Z,100812.72
2022-11-29T14:05:00.582Z,100809.25
2022-11-29T14:07:07.089Z,100813.66
2022-11-29T14:09:24.626Z,100808.53
2022-11-29T14:11:32.842Z,100812.78
2022-11-29T14:13:46.067Z,100812.19
2022-11-29T14:15:56.048Z,100815.25
2022-11-29T14:18:03.278Z,100812.66
2022-11-29T14:20:51.762Z,100823.16
2022-11-29T14:23:15.218Z,100825.09
2022-11-29T14:28:01.552Z,100821.72
2022-11-29T14:30:04.861Z,100831.13
2022-11-29T14:32:23.452Z,100831.19
2022-11-29T14:34:40.844Z,100831.06
2022-11-29T14:36:52.609Z,100833.91
2022-11-29T14:39:05.341Z,100832.97
2022-11-29T14:41:21.170Z,100840.63
2022-11-29T14:43:32.444Z,100838.69
2022-11-29T14:45:35.999Z,100839.56
2022-11-29T14:47:48.811Z,100835.22
2022-11-29T14:49:55.115Z,100838.78
2022-11-29T14:52:18.511Z,100847.72
2022-11-29T14:54:21.405Z,100851.03
2022-11-29T14:56:42.163Z,100856.06
2022-11-29T14:58:45.280Z,100859.56
2022-11-29T15:01:10.581Z,100860.50
2022-11-29T15:03:21.207Z,100847.41
2022-11-29T15:05:32.714Z,100855.06
2022-11-29T15:07:35.682Z,100855.81
2022-11-29T15:09:39.571Z,100861.00
2022-11-29T15:11:50.858Z,100851.41
2022-11-29T15:14:00.115Z,100855.81
2022-11-29T15:16:23.809Z,100860.31
2022-11-29T15:18:48.599Z,100859.50
2022-11-29T15:21:09.333Z,100864.72
2022-11-29T15:23:16.204Z,100871.47
2022-11-29T15:25:20.969Z,100874.03
2022-11-29T15:27:24.862Z,100872.47
2022-11-29T15:29:28.897Z,100869.94
2022-11-29T15:31:32.396Z,100867.28
2022-11-29T15:33:38.047Z,100864.63
2022-11-29T15:35:49.814Z,100873.31
2022-11-29T15:37:55.161Z,100868.00
2022-11-29T15:40:03.388Z,100880.97
2022-11-29T15:42:11.679Z,100879.44
2022-11-29T15:44:22.687Z,100882.03
2022-11-29T15:46:27.899Z,100882.97
2022-11-29T15:48:31.986Z,100888.78
2022-11-29T15:50:35.468Z,100887.97
2022-11-29T15:52:39.845Z,100883.69
2022-11-29T15:54:45.881Z,100886.47
2022-11-29T15:56:51.853Z,100891.72
2022-11-29T15:59:00.541Z,100892.47
2022-11-29T16:01:04.430Z,100893.16
2022-11-29T16:03:18.298Z,100894.06
2022-11-29T16:05:23.554Z,100891.31
2022-11-29T16:07:32.052Z,100898.31
2022-11-29T16:09:41.633Z,100894.75
2022-11-29T16:11:47.881Z,100897.34
2022-11-29T16:14:05.787Z,100888.09
2022-11-29T16:16:15.881Z,100892.47
2022-11-29T16:18:25.360Z,100891.41
2022-11-29T16:20:29.364Z,100898.34
2022-11-29T16:22:32.514Z,100899.25
2022-11-29T16:24:36.103Z,100895.06
2022-11-29T16:26:42.832Z,100895.00
2022-11-29T16:28:49.478Z,100898.44
2022-11-29T16:30:54.828Z,100899.41
2022-11-29T16:33:01.116Z,100907.41
2022-11-29T16:35:12.964Z,100901.09
2022-11-29T16:37:19.950Z,100904.47
2022-11-29T16:39:25.124Z,100906.31
2022-11-29T16:41:32.807Z,100904.59
2022-11-29T16:43:57.413Z,100907.06
2022-11-29T16:46:30.076Z,100911.41
2022-11-29T16:48:38.179Z,100913.91
2022-11-29T16:50:41.064Z,100915.75
2022-11-29T16:52:44.053Z,100915.09
2022-11-29T16:54:47.497Z,100916.88
2022-11-29T16:56:51.939Z,100912.34
2022-11-29T16:59:17.108Z,100914.91
2022-11-29T17:01:22.568Z,100915.81
2022-11-29T17:03:25.455Z,100914.75
2022-11-29T17:05:28.476Z,100905.28
2022-11-29T17:07:34.595Z,100909.78
2022-11-29T17:09:37.510Z,100914.91
2022-11-29T17:11:40.395Z,100915.09
2022-11-29T17:13:43.168Z,100920.09
2022-11-29T17:15:47.425Z,100916.75
2022-11-29T17:17:50.449Z,100911.41
2022-11-29T17:19:54.534Z,100914.63
2022-11-29T17:21:57.591Z,100922.56
2022-11-29T17:24:00.608Z,100923.44
2022-11-29T17:26:03.617Z,100919.94
2022-11-29T17:28:06.750Z,100926.03
2022-11-29T17:30:11.234Z,100925.34
2022-11-29T17:32:15.477Z,100927.78
2022-11-29T17:34:18.295Z,100930.38
2022-11-29T17:36:22.145Z,100933.06
2022-11-29T17:38:24.864Z,100932.16
2022-11-29T17:40:27.677Z,100938.00
2022-11-29T17:42:30.498Z,100927.69
2022-11-29T17:44:34.274Z,100933.72
2022-11-29T17:46:37.594Z,100931.91
2022-11-29T17:48:42.725Z,100936.25
2022-11-29T17:50:45.583Z,100936.25
2022-11-29T17:52:48.476Z,100940.63
2022-11-29T17:54:51.527Z,100943.00
2022-11-29T17:56:54.397Z,100940.38
2022-11-29T17:59:01.003Z,100944.78
2022-11-29T18:01:05.996Z,100947.34
2022-11-29T18:03:08.852Z,100945.72
2022-11-29T18:05:13.128Z,100955.44
2022-11-29T18:07:17.137Z,100951.97
2022-11-29T18:09:20.640Z,100959.53
2022-11-29T18:11:25.586Z,100959.53
2022-11-29T18:13:28.668Z,100961.22
2022-11-29T18:15:33.403Z,100959.31
2022-11-29T18:17:36.257Z,100966.19
2022-11-29T18:19:39.146Z,100961.94
2022-11-29T18:21:43.661Z,100969.97
2022-11-29T18:23:46.458Z,100960.50
2022-11-29T18:25:56.645Z,100966.47
2022-11-29T18:27:59.450Z,100961.13
2022-11-29T18:30:02.472Z,100958.66
2022-11-29T18:32:05.689Z,100961.22
2022-11-29T18:34:10.752Z,100967.34
2022-11-29T18:36:16.132Z,100967.44
2022-11-29T18:38:20.396Z,100969.19
2022-11-29T18:40:24.178Z,100976.09
2022-11-29T18:42:26.997Z,100969.16
2022-11-29T18:44:30.208Z,100975.16
2022-11-29T18:46:33.138Z,100979.63
2022-11-29T18:48:36.598Z,100985.66
2022-11-29T18:50:39.459Z,100983.97
2022-11-29T18:52:42.289Z,100980.53
2022-11-29T18:54:46.604Z,100975.53
2022-11-29T18:56:51.740Z,100986.56
2022-11-29T18:58:58.372Z,100984.72
2022-11-29T19:01:06.258Z,100986.25
2022-11-29T19:03:09.152Z,100987.22
2022-11-29T19:05:11.902Z,100985.63
2022-11-29T19:07:14.879Z,100982.13
2022-11-29T19:09:20.783Z,100987.19
2022-11-29T19:11:27.024Z,100987.97
2022-11-29T19:13:29.838Z,100986.25
2022-11-29T19:15:32.641Z,100985.47
2022-11-29T19:17:40.177Z,100985.25
2022-11-29T19:19:46.041Z,100990.50
2022-11-29T19:21:50.234Z,100994.53
2022-11-29T19:23:54.823Z,100999.19
2022-11-29T19:26:02.900Z,100990.25
2022-11-29T19:28:13.764Z,100990.91
2022-11-29T19:30:17.658Z,100999.81
2022-11-29T19:32:20.855Z,100998.09
2022-11-29T19:34:23.638Z,101005.88
2022-11-29T19:36:28.401Z,100998.84
2022-11-29T19:38:31.268Z,100998.03
2022-11-29T19:40:34.072Z,100998.06
2022-11-29T19:42:37.407Z,100995.69
2022-11-29T19:45:14.810Z,101002.59
2022-11-29T19:47:04.792Z,100995.44
2022-11-29T19:49:09.132Z,100997.28
2022-11-29T19:51:13.894Z,101001.56
2022-11-29T19:53:17.063Z,100999.09
2022-11-29T19:55:20.032Z,100995.63
2022-11-29T19:57:22.944Z,101003.34
2022-11-29T19:59:25.992Z,100999.81
2022-11-29T20:01:39.715Z,101001.47
2022-11-29T20:03:44.864Z,101000.69
2022-11-29T20:05:54.744Z,101001.66
2022-11-29T20:07:57.684Z,101001.53
2022-11-29T20:10:00.735Z,101008.59
2022-11-29T20:12:03.732Z,101006.75
2022-11-29T20:14:07.833Z,101010.25
2022-11-29T20:16:12.201Z,101006.66
2022-11-29T20:18:16.543Z,101011.16
2022-11-29T20:20:19.660Z,101012.13
2022-11-29T20:22:22.552Z,101011.94
2022-11-29T20:24:25.419Z,101017.97
2022-11-29T20:26:29.295Z,101023.22
2022-11-29T20:28:32.997Z,101015.44
2022-11-29T20:30:35.998Z,101027.50
2022-11-29T20:32:39.040Z,101012.81
2022-11-29T20:34:44.224Z,101012.91
2022-11-29T20:36:59.160Z,101009.53
2022-11-29T20:39:13.963Z,101009.47
2022-11-29T20:41:24.713Z,101015.31
2022-11-29T20:43:35.803Z,101025.78
2022-11-29T20:45:39.148Z,101023.03
2022-11-29T20:47:48.606Z,101023.09
2022-11-29T20:49:53.239Z,101017.91
2022-11-29T20:52:04.008Z,101023.03
2022-11-29T20:54:06.933Z,101023.84
2022-11-29T20:56:12.399Z,101026.34
2022-11-29T20:58:16.621Z,101018.47
2022-11-29T21:00:20.158Z,101022.75
2022-11-29T21:02:24.675Z,101023.50
2022-11-29T21:04:27.508Z,101027.94
2022-11-29T21:06:34.258Z,101025.22
2022-11-29T21:08:37.065Z,101022.75
2022-11-29T21:10:41.032Z,101024.53
2022-11-29T21:12:45.760Z,101026.19
2022-11-29T21:14:49.329Z,101024.41
2022-11-29T21:16:53.048Z,101025.34
2022-11-29T21:18:59.539Z,101033.09
2022-11-29T21:21:18.014Z,101040.00
2022-11-29T21:23:33.392Z,101030.50
2022-11-29T21:25:42.897Z,101031.91
2022-11-29T21:27:46.256Z,101037.94
2022-11-29T21:29:49.680Z,101034.59
2022-11-29T21:31:55.045Z,101040.53
2022-11-29T21:33:58.368Z,101042.28
2022-11-29T21:36:01.591Z,101038.91
2022-11-29T21:38:04.808Z,101048.38
2022-11-29T21:40:11.073Z,101047.53
2022-11-29T21:42:14.258Z,101048.13
2022-11-29T21:44:17.081Z,101053.56
2022-11-29T21:46:20.083Z,101048.50
2022-11-29T21:48:38.677Z,101052.66
2022-11-29T21:50:41.565Z,101050.91
2022-11-29T21:52:44.686Z,101048.94
2022-11-29T21:54:47.645Z,101057.75
2022-11-29T21:56:52.204Z,101057.81
2022-11-29T21:58:55.223Z,101062.91
2022-11-29T22:01:06.767Z,101067.22
2022-11-29T22:03:10.264Z,101066.41
2022-11-29T22:05:13.457Z,101065.63
2022-11-29T22:07:16.385Z,101077.81
2022-11-29T22:09:19.270Z,101067.50
2022-11-29T22:11:31.448Z,101064.84
2022-11-29T22:13:36.017Z,101065.72
2022-11-29T22:15:38.912Z,101065.69
2022-11-29T22:17:41.712Z,101061.34
2022-11-29T22:19:44.517Z,101063.16
2022-11-29T22:21:49.377Z,101061.34
2022-11-29T22:23:52.755Z,101062.91
2022-11-29T22:26:03.210Z,101061.22
2022-11-29T22:28:06.284Z,101066.50
2022-11-29T22:30:11.529Z,101060.34
2022-11-29T22:32:14.497Z,101058.63
2022-11-29T22:34:17.970Z,101055.16
2022-11-29T22:36:20.931Z,101053.31
2022-11-29T22:38:23.782Z,101058.69
2022-11-29T22:40:26.674Z,101065.81
2022-11-29T22:42:29.811Z,101062.13
2022-11-29T22:44:32.678Z,101056.13
2022-11-29T22:46:37.137Z,101062.03
2022-11-29T22:48:41.423Z,101061.00
2022-11-29T22:50:44.230Z,101054.78
2022-11-29T22:52:47.059Z,101060.94
2022-11-29T22:54:49.940Z,101061.09
2022-11-29T22:56:53.249Z,101054.09
2022-11-29T22:58:56.444Z,101059.09
2022-11-29T23:01:03.935Z,101061.72
2022-11-29T23:03:08.165Z,101059.94
2022-11-29T23:05:10.963Z,101063.31
2022-11-29T23:07:13.765Z,101060.81
2022-11-29T23:09:21.159Z,101059.88
2022-11-29T23:11:26.607Z,101059.78
2022-11-29T23:13:29.451Z,101062.31
2022-11-29T23:15:32.278Z,101061.63
2022-11-29T23:17:35.036Z,101066.81
2022-11-29T23:19:39.211Z,101068.44
2022-11-29T23:21:44.644Z,101069.13
2022-11-29T23:23:52.953Z,101070.81
2022-11-29T23:25:59.205Z,101067.34
2022-11-29T23:28:03.058Z,101056.34
2022-11-29T23:30:07.711Z,101065.91
2022-11-29T23:32:10.521Z,101066.44
2022-11-29T23:34:13.949Z,101064.81
2022-11-29T23:36:18.915Z,101063.94
2022-11-29T23:38:23.131Z,101071.91
2022-11-29T23:40:25.943Z,101066.44
2022-11-29T23:42:28.946Z,101068.28
2022-11-29T23:44:31.962Z,101061.13
2022-11-29T23:46:36.117Z,101064.56
2022-11-29T23:48:38.993Z,101059.06
2022-11-29T23:50:43.077Z,101059.59
2022-11-29T23:52:53.089Z,101060.25
2022-11-29T23:54:55.902Z,101059.81
2022-11-29T23:56:58.676Z,101057.88
2022-11-29T23:59:01.625Z,101060.63
